createdAt,value
2023-01-19T00:00:46.277Z,37.58
2023-01-19T00:03:16.384Z,36.60
2023-01-19T00:05:44.059Z,42.78
2023-01-19T00:08:14.980Z,49.67
2023-01-19T00:10:51.199Z,52.70
2023-01-19T00:13:17.887Z,53.90
2023-01-19T00:15:44.510Z,47.90
2023-01-19T00:18:11.355Z,40.15
2023-01-19T00:20:39.209Z,31.42
2023-01-19T00:23:07.682Z,30.40
2023-01-19T00:25:34.413Z,27.67
2023-01-19T00:28:01.895Z,27.60
2023-01-19T00:30:28.840Z,29.15
2023-01-19T00:32:55.848Z,27.42
2023-01-19T00:35:22.423Z,25.97
2023-01-19T00:37:49.004Z,27.60
2023-01-19T00:40:15.652Z,28.73
2023-01-19T00:42:44.517Z,29.98
2023-01-19T00:45:17.984Z,28.27
2023-01-19T00:47:44.589Z,30.60
2023-01-19T00:50:13.414Z,29.48
2023-01-19T00:52:41.304Z,30.45
2023-01-19T00:55:09.068Z,29.17
2023-01-19T00:57:35.816Z,30.00
2023-01-19T01:00:07.168Z,29.20
2023-01-19T01:02:34.385Z,30.58
2023-01-19T01:05:03.003Z,28.90
2023-01-19T01:07:30.418Z,26.77
2023-01-19T01:09:57.512Z,28.50
2023-01-19T01:12:24.183Z,28.07
2023-01-19T01:14:50.751Z,25.95
2023-01-19T01:17:17.477Z,25.40
2023-01-19T01:19:43.957Z,25.60
2023-01-19T01:22:10.702Z,26.80
2023-01-19T01:24:37.221Z,25.90
2023-01-19T01:27:03.901Z,26.07
2023-01-19T01:29:30.412Z,26.15
2023-01-19T01:31:57.066Z,25.25
2023-01-19T01:34:23.584Z,24.98
2023-01-19T01:36:50.131Z,25.40
2023-01-19T01:39:16.683Z,23.77
2023-01-19T01:41:43.262Z,26.88
2023-01-19T01:44:49.619Z,23.53
2023-01-19T01:47:34.316Z,27.17
2023-01-19T01:50:08.412Z,27.23
2023-01-19T01:52:39.577Z,26.43
2023-01-19T01:55:07.330Z,24.30
2023-01-19T01:57:41.951Z,23.57
2023-01-19T02:00:09.233Z,24.63
2023-01-19T02:02:52.408Z,23.07
2023-01-19T02:05:21.548Z,22.17
2023-01-19T02:08:13.062Z,23.57
2023-01-19T02:11:00.712Z,22.90
2023-01-19T02:13:30.469Z,22.77
2023-01-19T02:16:01.215Z,21.53
2023-01-19T02:18:29.882Z,21.80
2023-01-19T02:21:11.645Z,22.33
2023-01-19T02:23:41.816Z,22.10
2023-01-19T02:26:10.713Z,22.93
2023-01-19T02:28:41.612Z,22.17
2023-01-19T02:31:08.199Z,24.50
2023-01-19T02:33:34.905Z,21.57
2023-01-19T02:36:02.368Z,23.00
2023-01-19T02:38:30.468Z,23.43
2023-01-19T02:40:59.697Z,22.47
2023-01-19T02:43:28.876Z,23.70
2023-01-19T02:45:56.297Z,23.70
2023-01-19T02:48:23.007Z,23.73
2023-01-19T02:50:59.596Z,21.90
2023-01-19T02:53:42.645Z,21.27
2023-01-19T02:56:33.420Z,21.93
2023-01-19T02:59:37.905Z,21.90
2023-01-19T03:02:43.838Z,21.65
2023-01-19T03:05:52.060Z,21.67
2023-01-19T03:08:34.756Z,21.70
2023-01-19T03:11:08.141Z,21.00
2023-01-19T03:13:40.508Z,21.83
2023-01-19T03:16:22.582Z,22.07
2023-01-19T03:18:56.089Z,22.73
2023-01-19T03:21:26.804Z,23.80
2023-01-19T03:23:57.023Z,22.63
2023-01-19T03:26:29.865Z,20.97
2023-01-19T03:29:01.146Z,21.48
2023-01-19T03:31:30.527Z,21.57
2023-01-19T03:34:02.318Z,20.97
2023-01-19T03:36:51.556Z,22.40
2023-01-19T03:39:23.491Z,21.73
2023-01-19T03:42:06.132Z,23.87
2023-01-19T03:44:37.246Z,25.17
2023-01-19T03:47:05.977Z,24.27
2023-01-19T03:49:34.674Z,21.60
2023-01-19T03:52:01.308Z,20.67
2023-01-19T03:54:28.318Z,22.50
2023-01-19T03:56:54.867Z,21.33
2023-01-19T03:59:22.055Z,21.13
2023-01-19T04:01:49.455Z,18.90
2023-01-19T04:04:16.481Z,19.70
2023-01-19T04:06:44.218Z,20.07
2023-01-19T04:09:10.906Z,19.97
2023-01-19T04:11:37.489Z,19.40
2023-01-19T04:14:04.440Z,17.87
2023-01-19T04:16:31.042Z,21.00
2023-01-19T04:18:57.641Z,20.27
2023-01-19T04:21:24.217Z,21.53
2023-01-19T04:23:50.878Z,25.03
2023-01-19T04:26:17.418Z,28.30
2023-01-19T04:28:44.009Z,28.23
2023-01-19T04:31:10.865Z,23.30
2023-01-19T04:33:37.501Z,22.23
2023-01-19T04:36:04.482Z,23.70
2023-01-19T04:38:31.089Z,23.00
2023-01-19T04:40:57.638Z,22.90
2023-01-19T04:43:24.219Z,23.57
2023-01-19T04:45:51.286Z,24.60
2023-01-19T04:48:19.894Z,24.67
2023-01-19T04:50:46.742Z,26.50
2023-01-19T04:53:13.959Z,25.27
2023-01-19T04:55:40.994Z,24.97
2023-01-19T04:58:08.062Z,25.43
2023-01-19T05:00:34.817Z,23.60
2023-01-19T05:03:01.936Z,21.97
2023-01-19T05:05:28.950Z,21.43
2023-01-19T05:07:55.637Z,21.77
2023-01-19T05:10:22.222Z,20.40
2023-01-19T05:12:48.891Z,20.00
2023-01-19T05:15:15.578Z,20.00
2023-01-19T05:17:43.045Z,20.33
2023-01-19T05:20:13.359Z,18.43
2023-01-19T05:22:41.577Z,19.47
2023-01-19T05:25:11.418Z,18.13
2023-01-19T05:27:38.748Z,19.83
2023-01-19T05:30:06.240Z,19.67
2023-01-19T05:32:33.051Z,20.87
2023-01-19T05:34:59.868Z,19.47
2023-01-19T05:37:26.668Z,19.27
2023-01-19T05:39:53.737Z,19.33
2023-01-19T05:42:20.826Z,20.15
2023-01-19T05:44:47.345Z,18.37
2023-01-19T05:47:13.997Z,18.67
2023-01-19T05:49:40.538Z,17.97
2023-01-19T05:52:07.182Z,20.13
2023-01-19T05:54:33.808Z,19.73
2023-01-19T05:57:00.553Z,19.90
2023-01-19T05:59:27.117Z,20.07
2023-01-19T06:01:54.458Z,22.60
2023-01-19T06:04:21.541Z,22.43
2023-01-19T06:06:51.535Z,23.27
2023-01-19T06:09:18.406Z,21.30
2023-01-19T06:11:46.762Z,21.23
2023-01-19T06:14:13.672Z,20.80
2023-01-19T06:16:40.482Z,19.52
2023-01-19T06:19:07.920Z,18.70
2023-01-19T06:21:34.731Z,18.90
2023-01-19T06:24:01.566Z,20.02
2023-01-19T06:26:28.359Z,21.47
2023-01-19T06:28:55.672Z,21.30
2023-01-19T06:31:22.410Z,21.75
2023-01-19T06:33:49.964Z,21.20
2023-01-19T06:36:16.514Z,22.00
2023-01-19T06:38:43.100Z,20.55
2023-01-19T06:41:09.805Z,21.65
2023-01-19T06:43:36.834Z,20.57
2023-01-19T06:46:04.971Z,20.55
2023-01-19T06:48:31.704Z,19.33
2023-01-19T06:50:59.767Z,19.90
2023-01-19T06:53:28.170Z,22.63
2023-01-19T06:56:02.866Z,23.00
2023-01-19T06:58:31.327Z,21.77
2023-01-19T07:01:16.747Z,23.77
2023-01-19T07:03:45.482Z,22.17
2023-01-19T07:06:12.843Z,20.88
2023-01-19T07:08:40.175Z,21.30
2023-01-19T07:11:25.124Z,21.50
2023-01-19T07:13:55.722Z,19.77
2023-01-19T07:16:22.595Z,20.67
2023-01-19T07:18:50.199Z,20.92
2023-01-19T07:21:17.066Z,20.67
2023-01-19T07:23:43.698Z,21.70
2023-01-19T07:26:10.695Z,21.45
2023-01-19T07:28:37.661Z,21.95
2023-01-19T07:31:04.967Z,23.95
2023-01-19T07:33:31.698Z,31.52
2023-01-19T07:35:58.586Z,33.97
2023-01-19T07:38:25.434Z,32.73
2023-01-19T07:40:52.018Z,32.50
2023-01-19T07:43:18.679Z,33.58
2023-01-19T07:45:45.762Z,30.38
2023-01-19T07:48:12.472Z,30.83
2023-01-19T07:50:39.088Z,28.25
2023-01-19T07:53:07.543Z,29.38
2023-01-19T07:55:34.457Z,29.70
2023-01-19T07:58:01.273Z,28.10
2023-01-19T08:00:28.370Z,28.40
2023-01-19T08:03:03.544Z,29.92
2023-01-19T08:05:31.335Z,27.83
2023-01-19T08:07:58.607Z,28.50
2023-01-19T08:10:27.348Z,27.70
2023-01-19T08:12:54.796Z,26.73
2023-01-19T08:15:24.152Z,28.92
2023-01-19T08:17:58.601Z,27.75
2023-01-19T08:20:26.147Z,24.33
2023-01-19T08:23:00.307Z,22.52
2023-01-19T08:25:38.712Z,23.10
2023-01-19T08:28:06.962Z,22.50
2023-01-19T08:30:33.802Z,21.10
2023-01-19T08:33:08.361Z,22.95
2023-01-19T08:35:43.137Z,21.63
2023-01-19T08:38:10.675Z,19.38
2023-01-19T08:40:39.499Z,22.23
2023-01-19T08:43:08.589Z,22.00
2023-01-19T08:45:36.412Z,22.50
2023-01-19T08:48:04.522Z,23.25
2023-01-19T08:50:32.629Z,25.67
2023-01-19T08:53:01.470Z,23.55
2023-01-19T08:55:29.611Z,24.27
2023-01-19T08:58:00.276Z,22.02
2023-01-19T09:00:27.863Z,23.45
2023-01-19T09:02:55.070Z,24.00
2023-01-19T09:05:21.790Z,30.23
2023-01-19T09:07:48.552Z,27.10
2023-01-19T09:10:16.402Z,28.05
2023-01-19T09:12:45.038Z,23.80
2023-01-19T09:15:14.025Z,22.27
2023-01-19T09:17:43.873Z,22.40
2023-01-19T09:20:11.722Z,21.40
2023-01-19T09:22:39.724Z,21.90
2023-01-19T09:25:07.987Z,20.00
2023-01-19T09:27:35.059Z,22.13
2023-01-19T09:30:02.643Z,23.13
2023-01-19T09:32:29.179Z,21.17
2023-01-19T09:34:56.631Z,24.08
2023-01-19T09:37:23.231Z,36.22
2023-01-19T09:39:50.491Z,41.22
2023-01-19T09:42:46.795Z,48.08
2023-01-19T09:45:52.376Z,32.17
2023-01-19T09:48:48.756Z,38.22
2023-01-19T09:51:20.260Z,29.90
2023-01-19T09:54:00.821Z,23.13
2023-01-19T09:56:30.385Z,33.85
2023-01-19T09:58:59.347Z,25.67
2023-01-19T10:02:06.207Z,26.02
2023-01-19T10:04:42.042Z,25.92
2023-01-19T10:07:26.992Z,25.92
2023-01-19T10:10:18.314Z,24.20
2023-01-19T10:12:46.161Z,27.05
2023-01-19T10:15:39.711Z,25.58
2023-01-19T10:18:06.266Z,25.88
2023-01-19T10:20:42.137Z,24.85
2023-01-19T10:23:45.750Z,23.40
2023-01-19T10:26:17.293Z,24.02
2023-01-19T10:28:47.570Z,22.65
2023-01-19T10:31:19.472Z,22.10
2023-01-19T10:33:47.017Z,15.88
2023-01-19T10:36:20.297Z,12.70
2023-01-19T10:38:48.466Z,12.30
2023-01-19T10:41:20.348Z,13.73
2023-01-19T10:43:47.634Z,13.07
2023-01-19T10:46:20.142Z,13.07
2023-01-19T10:48:50.584Z,14.38
2023-01-19T10:51:18.529Z,18.90
2023-01-19T10:53:56.443Z,28.48
2023-01-19T10:56:37.103Z,27.75
2023-01-19T10:59:06.886Z,18.83
2023-01-19T11:01:37.589Z,15.40
2023-01-19T11:04:30.286Z,12.95
2023-01-19T11:07:21.827Z,19.85
2023-01-19T11:09:49.993Z,18.90
2023-01-19T11:12:23.431Z,23.15
2023-01-19T11:14:51.469Z,34.15
2023-01-19T11:17:26.601Z,18.35
2023-01-19T11:19:57.747Z,17.10
2023-01-19T11:22:31.151Z,18.55
2023-01-19T11:25:00.109Z,21.10
2023-01-19T11:27:28.905Z,19.52
2023-01-19T11:30:10.013Z,16.73
2023-01-19T11:32:37.580Z,17.38
2023-01-19T11:35:36.249Z,18.40
2023-01-19T11:38:23.959Z,16.67
2023-01-19T11:40:54.728Z,19.67
2023-01-19T11:43:23.892Z,23.52
2023-01-19T11:45:50.841Z,23.80
2023-01-19T11:48:27.069Z,19.75
2023-01-19T11:50:55.140Z,16.30
2023-01-19T11:53:25.500Z,16.20
2023-01-19T11:56:07.914Z,17.50
2023-01-19T11:58:39.410Z,19.48
2023-01-19T12:01:21.003Z,21.45
2023-01-19T12:03:55.016Z,18.27
2023-01-19T12:06:44.996Z,18.08
2023-01-19T12:09:17.396Z,16.98
2023-01-19T12:11:50.988Z,16.65
2023-01-19T12:14:23.983Z,17.40
2023-01-19T12:16:55.172Z,17.70
2023-01-19T12:19:27.840Z,18.33
2023-01-19T12:21:54.837Z,17.52
2023-01-19T12:24:40.304Z,16.63
2023-01-19T12:27:38.500Z,17.50
2023-01-19T12:30:06.821Z,17.60
2023-01-19T12:32:36.931Z,16.30
2023-01-19T12:35:03.663Z,18.60
2023-01-19T12:37:40.690Z,19.23
2023-01-19T12:40:25.226Z,16.98
2023-01-19T12:42:57.959Z,19.80
2023-01-19T12:45:29.623Z,20.23
2023-01-19T12:47:56.464Z,37.47
2023-01-19T12:50:25.933Z,33.17
2023-01-19T12:52:58.466Z,30.15
2023-01-19T12:55:39.129Z,26.98
2023-01-19T12:58:14.767Z,25.05
2023-01-19T13:00:50.724Z,22.63
2023-01-19T13:03:17.489Z,19.42
2023-01-19T13:05:44.986Z,23.17
2023-01-19T13:08:13.132Z,20.08
2023-01-19T13:11:11.670Z,22.58
2023-01-19T13:13:40.195Z,24.15
2023-01-19T13:16:19.017Z,22.42
2023-01-19T13:18:58.779Z,21.50
2023-01-19T13:21:35.508Z,23.10
2023-01-19T13:24:08.273Z,22.77
2023-01-19T13:26:57.519Z,22.17
2023-01-19T13:29:36.596Z,19.02
2023-01-19T13:32:18.895Z,16.15
2023-01-19T13:34:50.987Z,17.58
2023-01-19T13:37:22.243Z,16.90
2023-01-19T13:39:52.423Z,18.33
2023-01-19T13:42:23.226Z,16.52
2023-01-19T13:44:54.324Z,15.88
2023-01-19T13:47:41.417Z,23.33
2023-01-19T13:50:19.900Z,17.58
2023-01-19T13:52:46.703Z,15.55
2023-01-19T13:55:14.925Z,47.75
2023-01-19T13:57:43.855Z,36.47
2023-01-19T14:00:16.290Z,25.63
2023-01-19T14:02:53.828Z,20.40
2023-01-19T14:05:34.804Z,17.83
2023-01-19T14:08:13.764Z,15.23
2023-01-19T14:11:00.597Z,15.57
2023-01-19T14:13:30.017Z,16.42
2023-01-19T14:16:04.357Z,17.83
2023-01-19T14:18:35.432Z,18.48
2023-01-19T14:21:11.854Z,18.00
2023-01-19T14:23:59.901Z,18.38
2023-01-19T14:26:51.390Z,20.15
2023-01-19T14:29:24.402Z,19.70
2023-01-19T14:31:53.043Z,20.58
2023-01-19T14:34:31.692Z,20.95
2023-01-19T14:36:59.349Z,21.75
2023-01-19T14:39:31.402Z,23.60
2023-01-19T14:42:01.185Z,24.35
2023-01-19T14:44:35.744Z,22.15
2023-01-19T14:47:03.292Z,24.00
2023-01-19T14:49:40.163Z,22.08
2023-01-19T14:52:21.655Z,24.33
2023-01-19T14:54:50.008Z,24.55
2023-01-19T14:57:17.431Z,24.83
2023-01-19T14:59:48.910Z,23.50
2023-01-19T15:02:19.764Z,25.35
2023-01-19T15:04:48.223Z,24.08
2023-01-19T15:07:19.888Z,24.77
2023-01-19T15:09:47.367Z,25.33
2023-01-19T15:12:17.524Z,25.02
2023-01-19T15:14:45.661Z,24.15
2023-01-19T15:17:17.477Z,25.75
2023-01-19T15:19:45.268Z,25.70
2023-01-19T15:22:13.464Z,26.52
2023-01-19T15:24:41.019Z,26.13
2023-01-19T15:27:13.467Z,26.10
2023-01-19T15:29:41.207Z,26.35
2023-01-19T15:32:15.181Z,25.77
2023-01-19T15:34:42.136Z,24.27
2023-01-19T15:37:09.008Z,26.17
2023-01-19T15:39:35.829Z,25.20
2023-01-19T15:42:02.582Z,23.92
2023-01-19T15:44:30.675Z,24.55
2023-01-19T15:46:57.651Z,24.85
2023-01-19T15:49:24.905Z,23.50
2023-01-19T15:51:52.043Z,21.60
2023-01-19T15:54:20.107Z,21.70
2023-01-19T15:56:47.338Z,24.08
2023-01-19T15:59:13.929Z,24.07
2023-01-19T16:01:41.461Z,24.77
2023-01-19T16:04:11.180Z,20.93
2023-01-19T16:06:38.217Z,21.45
2023-01-19T16:09:06.353Z,21.47
2023-01-19T16:11:34.345Z,23.13
2023-01-19T16:14:02.425Z,22.67
2023-01-19T16:16:29.448Z,21.90
2023-01-19T16:18:56.971Z,23.45
2023-01-19T16:21:24.969Z,21.40
2023-01-19T16:23:51.728Z,20.30
2023-01-19T16:26:33.154Z,22.03
2023-01-19T16:29:10.742Z,21.43
2023-01-19T16:31:39.798Z,23.30
2023-01-19T16:34:07.008Z,21.80
2023-01-19T16:36:35.668Z,20.52
2023-01-19T16:39:06.211Z,21.15
2023-01-19T16:41:34.205Z,20.10
2023-01-19T16:44:01.290Z,21.63
2023-01-19T16:46:32.662Z,20.58
2023-01-19T16:49:11.026Z,20.93
2023-01-19T16:51:37.832Z,19.80
2023-01-19T16:54:04.937Z,19.70
2023-01-19T16:56:32.096Z,19.87
2023-01-19T16:58:59.598Z,20.10
2023-01-19T17:01:28.481Z,19.10
2023-01-19T17:03:56.087Z,19.43
2023-01-19T17:06:24.457Z,20.00
2023-01-19T17:08:52.557Z,19.77
2023-01-19T17:11:22.931Z,19.13
2023-01-19T17:14:24.617Z,18.87
2023-01-19T17:16:51.455Z,19.33
2023-01-19T17:19:20.052Z,19.20
2023-01-19T17:21:51.597Z,18.40
2023-01-19T17:24:18.441Z,19.10
2023-01-19T17:26:48.701Z,18.33
2023-01-19T17:29:16.487Z,17.40
2023-01-19T17:31:43.228Z,18.33
2023-01-19T17:34:10.405Z,18.40
2023-01-19T17:36:37.210Z,18.80
2023-01-19T17:39:08.731Z,18.30
2023-01-19T17:41:35.954Z,19.25
2023-01-19T17:44:04.790Z,18.90
2023-01-19T17:46:34.915Z,18.60
2023-01-19T17:49:03.634Z,16.90
2023-01-19T17:51:31.466Z,18.47
2023-01-19T17:53:58.721Z,18.60
2023-01-19T17:56:29.918Z,17.33
2023-01-19T17:58:57.925Z,17.07
2023-01-19T18:01:30.232Z,17.60
2023-01-19T18:03:58.038Z,16.13
2023-01-19T18:06:24.886Z,17.57
2023-01-19T18:08:52.600Z,17.87
2023-01-19T18:11:20.732Z,18.23
2023-01-19T18:13:48.781Z,17.10
2023-01-19T18:16:19.403Z,18.73
2023-01-19T18:18:46.118Z,16.77
2023-01-19T18:21:14.701Z,16.73
2023-01-19T18:23:45.805Z,19.00
2023-01-19T18:26:16.134Z,16.97
2023-01-19T18:28:42.786Z,16.67
2023-01-19T18:31:11.556Z,18.70
2023-01-19T18:33:39.224Z,16.80
2023-01-19T18:36:07.165Z,19.07
2023-01-19T18:38:34.279Z,17.17
2023-01-19T18:41:05.375Z,17.03
2023-01-19T18:43:32.315Z,16.00
2023-01-19T18:45:59.168Z,17.93
2023-01-19T18:48:26.310Z,18.27
2023-01-19T18:50:53.490Z,19.03
2023-01-19T18:53:21.107Z,17.97
2023-01-19T18:55:52.180Z,17.37
2023-01-19T18:58:19.341Z,17.37
2023-01-19T19:00:46.266Z,17.23
2023-01-19T19:03:13.270Z,17.23
2023-01-19T19:05:40.148Z,16.77
2023-01-19T19:08:07.223Z,16.80
2023-01-19T19:10:34.230Z,17.40
2023-01-19T19:13:00.892Z,17.77
2023-01-19T19:15:27.891Z,15.97
2023-01-19T19:17:54.995Z,18.60
2023-01-19T19:20:23.614Z,16.87
2023-01-19T19:22:51.987Z,17.27
2023-01-19T19:25:18.995Z,16.67
2023-01-19T19:27:48.093Z,17.53
2023-01-19T19:30:15.460Z,18.07
2023-01-19T19:32:42.337Z,18.00
2023-01-19T19:35:09.564Z,19.00
2023-01-19T19:37:36.301Z,18.10
2023-01-19T19:40:04.028Z,16.77
2023-01-19T19:42:30.611Z,16.67
2023-01-19T19:44:57.224Z,14.33
2023-01-19T19:47:24.582Z,14.83
2023-01-19T19:49:51.210Z,16.57
2023-01-19T19:52:18.022Z,16.03
2023-01-19T19:54:45.231Z,17.07
2023-01-19T19:57:12.037Z,16.47
2023-01-19T19:59:38.887Z,15.80
2023-01-19T20:02:07.034Z,15.57
2023-01-19T20:04:33.737Z,15.87
2023-01-19T20:07:00.547Z,15.60
2023-01-19T20:09:27.363Z,15.83
2023-01-19T20:11:54.200Z,15.80
2023-01-19T20:14:22.526Z,16.97
2023-01-19T20:16:49.389Z,16.23
2023-01-19T20:19:17.993Z,16.60
2023-01-19T20:21:44.555Z,16.73
2023-01-19T20:24:16.915Z,16.53
2023-01-19T20:26:47.829Z,14.67
2023-01-19T20:29:17.380Z,15.47
2023-01-19T20:32:02.453Z,16.40
2023-01-19T20:34:33.323Z,15.85
2023-01-19T20:37:01.924Z,15.17
2023-01-19T20:39:30.195Z,15.77
2023-01-19T20:41:57.323Z,16.33
2023-01-19T20:44:26.093Z,14.23
2023-01-19T20:46:54.173Z,15.13
2023-01-19T20:49:21.544Z,14.10
2023-01-19T20:51:48.547Z,14.73
2023-01-19T20:54:17.857Z,16.30
2023-01-19T20:56:44.854Z,14.23
2023-01-19T20:59:12.735Z,15.87
2023-01-19T21:01:41.045Z,15.17
2023-01-19T21:04:08.403Z,14.90
2023-01-19T21:06:35.705Z,14.23
2023-01-19T21:09:02.440Z,15.17
2023-01-19T21:11:29.175Z,14.67
2023-01-19T21:13:56.599Z,14.43
2023-01-19T21:16:29.701Z,14.17
2023-01-19T21:18:56.344Z,14.60
2023-01-19T21:21:30.879Z,14.90
2023-01-19T21:23:59.597Z,14.23
2023-01-19T21:26:26.343Z,14.80
2023-01-19T21:28:53.155Z,15.43
2023-01-19T21:31:22.693Z,16.13
2023-01-19T21:33:53.627Z,15.40
2023-01-19T21:36:22.546Z,14.77
2023-01-19T21:38:51.719Z,14.93
2023-01-19T21:41:19.003Z,14.33
2023-01-19T21:43:46.322Z,15.20
2023-01-19T21:46:17.575Z,14.20
2023-01-19T21:48:44.704Z,15.17
2023-01-19T21:51:12.545Z,16.17
2023-01-19T21:53:39.704Z,15.27
2023-01-19T21:56:10.724Z,14.73
2023-01-19T21:58:37.698Z,15.10
2023-01-19T22:01:13.856Z,14.80
2023-01-19T22:03:41.715Z,15.17
2023-01-19T22:06:14.204Z,15.20
2023-01-19T22:08:41.653Z,13.80
2023-01-19T22:11:11.051Z,14.97
2023-01-19T22:13:40.988Z,15.13
2023-01-19T22:16:10.936Z,14.45
2023-01-19T22:18:41.376Z,13.53
2023-01-19T22:21:14.245Z,15.43
2023-01-19T22:23:41.450Z,14.93
2023-01-19T22:26:09.195Z,14.73
2023-01-19T22:28:36.710Z,13.97
2023-01-19T22:31:17.540Z,16.23
2023-01-19T22:33:45.109Z,15.73
2023-01-19T22:36:32.000Z,17.73
2023-01-19T22:39:01.221Z,15.90
2023-01-19T22:41:40.649Z,16.00
2023-01-19T22:44:10.998Z,16.80
2023-01-19T22:46:38.121Z,16.83
2023-01-19T22:49:08.817Z,17.23
2023-01-19T22:51:36.084Z,18.30
2023-01-19T22:54:03.390Z,19.60
2023-01-19T22:56:32.146Z,18.03
2023-01-19T22:58:59.135Z,19.60
2023-01-19T23:01:43.553Z,20.67
2023-01-19T23:04:15.642Z,18.00
2023-01-19T23:06:42.950Z,19.47
2023-01-19T23:09:14.101Z,20.47
2023-01-19T23:11:43.447Z,21.10
2023-01-19T23:14:14.580Z,21.77
2023-01-19T23:16:41.765Z,20.23
2023-01-19T23:19:11.035Z,22.30
2023-01-19T23:21:37.610Z,19.93
2023-01-19T23:24:05.223Z,20.23
2023-01-19T23:26:38.092Z,19.48
2023-01-19T23:29:12.564Z,20.20
2023-01-19T23:31:43.886Z,20.17
2023-01-19T23:34:12.395Z,19.85
2023-01-19T23:36:40.956Z,19.30
2023-01-19T23:39:27.801Z,19.83
2023-01-19T23:41:54.366Z,20.13
2023-01-19T23:44:20.913Z,20.80
2023-01-19T23:46:47.698Z,18.70
2023-01-19T23:49:14.517Z,21.67
2023-01-19T23:51:41.537Z,19.63
2023-01-19T23:54:08.176Z,19.13
2023-01-19T23:56:37.361Z,19.27
2023-01-19T23:59:07.144Z,19.43
